• Join FlightAware (Why Join?)
  • Login
  • US Flag 
06:33PM EDT


 

Airport Tracker/Info


-or-


 

Live Flight TrackerFlight Track Log ✈ AAL942 ✈ 09-Jul-2014 ✈ KMIA - MDSD / SDQ

Flight Track Log - Related Links

Times and Time Zones

All times are in EDT time to prevent confusion due to time zone crossing. See the AAL942 flight status page for this flight to view local times or setup timezone preferences in your user account.

Time Position Orientation Groundspeed Altitude Reporting Facility
EDT Latitude Longitude Course Direction KTS MPH feet Rate Location/Type
11:49PM 25.8019 -80.2608 90° East 160 184 1,500  Level Miami Center
11:50PM 25.7786 -80.1972 112° Southeast 216 249 3,300 2,160 Climbing Miami Center
11:51PM 25.6654 -80.0823 114° Southeast  Level Estimated
11:51PM 25.7433 -80.1231 118° Southeast 267 307 6,000  Level Miami Center
11:52PM 25.6004 -79.9785 104° East  Level Estimated
11:52PM 25.7256 -80.0375 103° East 280 322 8,800  Level Miami Center
11:53PM 25.5352 -79.8749 105° East  Level Estimated
11:53PM 25.7075 -79.9511 103° East 294 338 10,800  Level Miami Center
11:54PM 25.4700 -79.7713 90° East  Level Estimated
11:54PM 25.6839 -79.8425 104° East 361 415 12,000  Level Miami Center
11:55PM 25.6578 -79.7222 104° East 401 461 14,000 1,980 Climbing Miami Center
11:56PM 25.6300 -79.5956 104° East 419 482 16,200 1,980 Climbing Miami Center
11:57PM 25.5858 -79.4731 112° Southeast 433 498 18,000 1,680 Climbing Miami Center
11:58PM 25.5194 -79.3583 123° Southeast 444 511 19,700 1,620 Climbing Miami Center
11:59PM 25.4500 -79.2411 123° Southeast 453 521 21,400 1,620 Climbing Miami Center
12:00AM 25.3789 -79.1214 123° Southeast 460 529 23,000 1,680 Climbing Miami Center
12:01AM 25.3067 -79.0006 123° Southeast 469 540 24,800 1,680 Climbing Miami Center
12:02AM 25.2283 -78.8692 123° Southeast 479 551 26,400 1,560 Climbing Miami Center
12:03AM 25.1556 -78.7436 123° Southeast 485 558 28,100 1,740 Climbing Miami Center
12:04AM 25.0797 -78.6192 124° Southeast 488 562 29,900 1,860 Climbing Miami Center
12:05AM 24.9969 -78.4822 124° Southeast 490 564 31,900 1,860 Climbing Miami Center
12:06AM 24.9253 -78.3594 123° Southeast 483 556 33,800 1,680 Climbing Miami Center
12:07AM 24.8528 -78.2403 124° Southeast 475 547 35,400 1,620 Climbing Miami Center
12:08AM 24.7814 -78.1200 123° Southeast 472 543 37,000 1,440 Climbing Miami Center
12:09AM 24.7100 -78.0028 124° Southeast 468 539 38,300 960 Climbing Miami Center
12:10AM 24.6397 -77.8875 124° Southeast 460 529 39,000 300 Climbing Miami Center
12:11AM 24.5700 -77.7731 124° Southeast 455 524 39,000  Level Miami Center
12:12AM 24.4983 -77.6581 124° Southeast 456 525 39,000  Level Miami Center
12:13AM 24.4197 -77.5303 124° Southeast 457 526 39,000  Level Miami Center
12:14AM 24.3478 -77.4144 124° Southeast 458 527 39,000  Level Miami Center
12:15AM 24.2758 -77.2986 124° Southeast 459 528 39,000  Level Miami Center
12:16AM 24.2047 -77.1828 124° Southeast 459 528 39,000  Level Miami Center
12:17AM 24.1319 -77.0681 125° Southeast 459 528 39,000  Level Miami Center
12:18AM 24.0628 -76.9525 123° Southeast 458 527 39,000  Level Miami Center
12:19AM 23.9958 -76.8453 124° Southeast 457 526 39,000  Level Miami Center
12:20AM 23.9231 -76.7311 125° Southeast 456 525 39,000  Level Miami Center
12:21AM 23.8517 -76.6144 124° Southeast 461 531 39,000  Level Miami Center
12:22AM 23.7794 -76.4975 124° Southeast 462 532 39,000  Level Miami Center
12:23AM 23.7064 -76.3819 125° Southeast 463 533 39,000  Level Miami Center
12:24AM 23.6347 -76.2653 124° Southeast 464 534 39,000  Level Miami Center
12:25AM 23.5625 -76.1486 124° Southeast 464 534 39,000  Level Miami Center
12:26AM 23.4889 -76.0333 125° Southeast 466 536 39,000  Level Miami Center
12:27AM 23.4164 -75.9197 125° Southeast 467 537 39,000  Level Miami Center
12:28AM 23.3272 -75.7828 125° Southeast 477 549 39,000  Level Miami Center
12:30AM 23.2556 -75.6667 124° Southeast 475 547 39,000  Level Miami Center
12:31AM 23.1831 -75.5517 124° Southeast 468 539 39,000  Level Miami Center
12:31AM 23.1094 -75.4358 125° Southeast 467 537 39,000  Level Miami Center
12:33AM 23.0361 -75.3211 125° Southeast 465 535 39,000  Level Miami Center
12:34AM 22.9614 -75.2072 125° Southeast 465 535 39,000  Level Miami Center
12:35AM 22.8878 -75.0931 125° Southeast 464 534 39,000  Level Miami Center
12:36AM 22.8128 -74.9781 125° Southeast 466 536 39,000  Level Miami Center
12:37AM 22.7397 -74.8636 125° Southeast 465 535 39,000  Level Miami Center
12:38AM 22.6650 -74.7517 126° Southeast 463 533 39,000  Level Miami Center
12:39AM 22.5906 -74.6364 125° Southeast 463 533 39,000  Level Miami Center
12:40AM 22.5161 -74.5233 125° Southeast 463 533 39,000  Level Miami Center
12:41AM 22.4417 -74.4089 125° Southeast 463 533 39,000  Level Miami Center
12:42AM 22.3686 -74.2956 125° Southeast 462 532 39,000  Level Miami Center
12:43AM 22.2942 -74.1833 126° Southeast 461 531 39,000  Level Miami Center
12:44AM 22.2217 -74.0708 125° Southeast 460 529 39,000  Level Miami Center
12:45AM 22.1475 -73.9592 126° Southeast 459 528 39,000  Level Miami Center
12:46AM 22.0731 -73.8478 126° Southeast 458 527 39,000  Level Miami Center
12:47AM 21.9931 -73.7244 125° Southeast 457 526 39,000  Level Miami Center
12:48AM 21.9197 -73.6156 126° Southeast 455 524 39,000  Level Miami Center
12:49AM 21.8464 -73.5044 125° Southeast 455 524 39,000  Level Miami Center
12:50AM 21.7711 -73.3944 126° Southeast 455 524 39,000  Level Miami Center
12:51AM 21.6992 -73.2839 125° Southeast 455 524 39,000  Level Miami Center
12:52AM 21.6256 -73.1728 125° Southeast 455 524 39,000  Level Miami Center
12:53AM 21.5519 -73.0611 125° Southeast 455 524 39,000  Level Miami Center
12:54AM 21.4783 -72.9514 126° Southeast 455 524 39,000  Level Miami Center
12:55AM 21.4036 -72.8411 126° Southeast 456 525 39,000  Level Miami Center
12:56AM 21.3297 -72.7303 126° Southeast 455 524 39,000  Level Miami Center
12:57AM 21.2569 -72.6192 125° Southeast 455 524 39,000  Level Miami Center
12:58AM 21.1828 -72.5089 126° Southeast 455 524 39,000  Level Miami Center
12:59AM 21.1086 -72.3981 126° Southeast 456 525 39,000  Level Miami Center
01:00AM 21.0331 -72.2864 126° Southeast 460 529 39,000  Level Miami Center
01:01AM 20.9564 -72.1756 127° Southeast 461 531 39,000  Level Miami Center
01:02AM 20.8794 -72.0622 126° Southeast 466 536 39,000  Level Miami Center
01:03AM 20.8022 -71.9506 126° Southeast 468 539 39,000  Level Miami Center
01:04AM 20.7275 -71.8394 126° Southeast 468 539 39,000  Level Miami Center
01:05AM 20.6511 -71.7269 126° Southeast 467 537 39,000  Level Miami Center
01:06AM 20.5589 -71.5939 126° Southeast 467 537 39,000  Level Miami Center
01:07AM 20.4833 -71.4839 126° Southeast 465 535 39,000  Level Miami Center
01:08AM 20.4042 -71.3750 128° Southeast 465 535 39,000  Level Miami Center
01:10AM 20.2370 -71.2489 145° Southeast  Level FlightAware Approximate
01:17AM 19.7558 -70.5965 115° Southeast  Level FlightAware Approximate
01:18AM 19.6782 -70.5153 146° Southeast  Level FlightAware Approximate
01:19AM 19.5821 -70.4466 146° Southeast  Level FlightAware Approximate
01:20AM 19.4855 -70.3787 147° Southeast  Level FlightAware Approximate
01:21AM 19.3880 -70.3123 147° Southeast  Level FlightAware Approximate
01:22AM 19.2904 -70.2459 147° Southeast  Level FlightAware Approximate
01:23AM 19.1929 -70.1797 147° Southeast  Level FlightAware Approximate
01:24AM 19.0953 -70.1135 148° Southeast  Level FlightAware Approximate
01:25AM 18.9973 -70.0481 148° Southeast  Level FlightAware Approximate
01:26AM 18.9000 -69.9816 146° Southeast  Level FlightAware Approximate
01:27AM 18.8034 -69.9140 146° Southeast  Level FlightAware Approximate
01:28AM 18.7057 -69.8482 148° Southeast  Level FlightAware Approximate
01:29AM 18.6086 -69.7814 145° Southeast  Level FlightAware Approximate
01:30AM 18.5141 -69.7106 145° Southeast  Level FlightAware Approximate
01:31AM 18.4297 -69.6689 150° Southeast  Level Estimated
01:32AM 18.4297 -69.6689 150° Southeast  Level Estimated
01:33AM 18.4297 -69.6689 150° Southeast  Level Estimated
01:34AM 18.4297 -69.6689 150° Southeast  Level Estimated
01:35AM 18.4297 -69.6689 150° Southeast  Level Estimated